Terminal Aerodrome Forecast
Issued by NWS

Home | Current Version | Previous Version | Text Only | Print | Product List | Glossary On
Versions: 1 2 3 4 5 6 7 8 9 10 11 12 13 14 15
639
FTUS41 KBTV 250158 AAA
TAFMSS
TAF AMD
KMSS 250158Z 2502/2524 06013KT P6SM VCSH FEW008 SCT015 OVC025
      TEMPO 2502/2504 2SM -SHRA BR BKN008 OVC025
     FM250400 07010KT 5SM -SHRA BR BKN008 OVC015
     FM251500 06009KT P6SM SCT028 OVC035
     FM251900 06008KT P6SM FEW030 SCT060=

USA.gov is the U.S. government's official web portal to all federal, state and local government web resources and services.